Suehiro Maru No.8 — JK5423 — position and weather

sailwx.info

Track history (hours):
 
Tides and Currents Weather Stations Pressure Air Temp Water Temp Dewpoint Dewpoint Depression Visibility Wind Speed Wind Dir Waves Ship Positions

Suehiro Maru No.8

Last reported at 2017-Dec-17 16:00 UTC. Time now 2017-Dec-17 16:04 UTC.
Position N 34°35' E 136°59'.

Length 88 m; draft 3.2 m.

Type: Cargo ship. MMSI: 431400446.

Date/timePositionNaut miles runAvg speedWind from/ knotsBaromVisibWave heightAir tempDewpointWater temp
2017-Dec-17 16:00N 34°35' E 136°59'713.6
2017-Dec-17 15:30N 34°39' E 136°52'713.6
2017-Dec-17 15:00N 34°45' E 136°48'713.5
2017-Dec-17 14:30N 34°51' E 136°46'713.4
2017-Dec-17 14:00N 34°58' E 136°48'611.3
2017-Dec-17 13:30N 35°02' E 136°52'0 0.1
2017-Dec-17 13:00N 35°02' E 136°52'0 0.0
2017-Dec-17 12:31N 35°02' E 136°52'0 0.0
2017-Dec-17 12:00N 35°02' E 136°52'0 0.0
2017-Dec-17 11:31N 35°02' E 136°52'0 0.0
2017-Dec-17 11:00N 35°02' E 136°52'0 0.0
2017-Dec-17 10:30N 35°02' E 136°52'0 0.0
2017-Dec-17 10:00N 35°02' E 136°52'0 0.0
2017-Dec-17 09:30N 35°02' E 136°52'0 0.0
2017-Dec-17 09:01N 35°02' E 136°52'0 0.0
2017-Dec-17 08:30N 35°02' E 136°52'0 0.0
2017-Dec-17 08:01N 35°02' E 136°52'0 0.0
2017-Dec-17 07:31N 35°02' E 136°52'2 3.3
2017-Dec-17 07:00N 35°03' E 136°50'0 0.2
2017-Dec-17 06:30N 35°03' E 136°50'0 0.0
2017-Dec-17 06:00N 35°03' E 136°50'0 0.0
2017-Dec-17 05:30N 35°03' E 136°50'0 0.0
2017-Dec-17 05:01N 35°03' E 136°50'0 0.0
2017-Dec-17 04:30N 35°03' E 136°50'0 0.0
2017-Dec-17 04:00N 35°03' E 136°50'0 0.0
2017-Dec-17 03:31N 35°03' E 136°50'0 0.0
2017-Dec-17 03:00N 35°03' E 136°50'0 0.0
2017-Dec-17 02:31N 35°03' E 136°50'0 0.0
2017-Dec-17 02:01N 35°03' E 136°50'0 0.0
2017-Dec-17 01:31N 35°03' E 136°50'0 0.0
2017-Dec-17 01:01N 35°03' E 136°50'0 0.0
2017-Dec-17 00:31N 35°03' E 136°50'0 0.0
2017-Dec-17 00:00N 35°03' E 136°50'0 0.0
2017-Dec-16 23:30N 35°03' E 136°50'0 0.0
2017-Dec-16 23:00N 35°03' E 136°50'2 3.1
2017-Dec-16 22:30N 35°02' E 136°51'1 1.6
2017-Dec-16 22:00N 35°01' E 136°51'0 0.0
2017-Dec-16 21:31N 35°01' E 136°51'0 0.0
2017-Dec-16 21:01N 35°01' E 136°51'0 0.0
2017-Dec-16 20:30N 35°01' E 136°51'0 0.0
2017-Dec-16 20:01N 35°01' E 136°51'0 0.1
2017-Dec-16 19:30N 35°01' E 136°51'0 0.0
2017-Dec-16 19:00N 35°01' E 136°51'0 0.0
2017-Dec-16 18:30N 35°01' E 136°51'0 0.1
2017-Dec-16 18:00N 35°01' E 136°51'0 0.1
2017-Dec-16 17:30N 35°01' E 136°51'0 0.0
2017-Dec-16 17:01N 35°01' E 136°51'0 0.0
2017-Dec-16 16:30N 35°01' E 136°51'0 0.0
2017-Dec-16 16:01N 35°01' E 136°51'0 0.0
2017-Dec-16 15:31N 35°01' E 136°51'0 0.0
2017-Dec-16 15:01N 35°01' E 136°51'0 0.0
2017-Dec-16 14:30N 35°01' E 136°51'0 0.0
2017-Dec-16 14:00N 35°01' E 136°51'0 0.0
2017-Dec-16 13:30N 35°01' E 136°51'0 0.1
2017-Dec-16 13:00N 35°01' E 136°51'0 0.0
2017-Dec-16 12:31N 35°01' E 136°51'4 7.7
2017-Dec-16 12:01N 34°58' E 136°48'3 5.9
2017-Dec-16 11:30N 34°55' E 136°47'4 9.0
2017-Dec-16 11:01N 34°50' E 136°48'611.4
2017-Dec-16 10:30N 34°45' E 136°49'611.3
2017-Dec-16 10:00N 34°40' E 136°53'711.2
2017-Dec-16 09:25N 34°35' E 136°59'2710.6
2017-Dec-16 06:52N 34°10' E 136°48'89 9.4
2017-Dec-15 21:19N 33°53' E 135°02'412.0
2017-Dec-15 21:01N 33°57' E 135°02'612.6
2017-Dec-15 20:31N 34°03' E 135°02'612.4
2017-Dec-15 20:01N 34°09' E 135°03'611.3
2017-Dec-15 19:30N 34°14' E 135°06'1 1.9
2017-Dec-15 19:00N 34°15' E 135°07'0 0.0
2017-Dec-15 18:30N 34°15' E 135°07'0 0.0
2017-Dec-15 18:00N 34°15' E 135°07'0 0.0
2017-Dec-15 17:30N 34°15' E 135°07'0 0.0
2017-Dec-15 17:00N 34°15' E 135°07'0 0.0
2017-Dec-15 16:31N 34°15' E 135°07'0 0.0
2017-Dec-15 16:01N 34°15' E 135°07'0 0.0
2017-Dec-15 15:30N 34°15' E 135°07'0 0.0
2017-Dec-15 15:00N 34°15' E 135°07'0 0.0
2017-Dec-15 14:30N 34°15' E 135°07'0 0.0
2017-Dec-15 14:00N 34°15' E 135°07'0 0.0
2017-Dec-15 13:30N 34°15' E 135°07'0 0.0
2017-Dec-15 13:00N 34°15' E 135°07'0 0.0
2017-Dec-15 12:31N 34°15' E 135°07'0 0.0
2017-Dec-15 12:00N 34°15' E 135°07'0 0.0
2017-Dec-15 11:30N 34°15' E 135°07'0 0.0
2017-Dec-15 11:00N 34°15' E 135°07'0 0.0
2017-Dec-15 10:30N 34°15' E 135°07'0 0.0
2017-Dec-15 10:01N 34°15' E 135°07'0 0.0
2017-Dec-15 09:30N 34°15' E 135°07'0 0.1
2017-Dec-15 09:00N 34°15' E 135°07'1 2.4
2017-Dec-15 08:30N 34°15' E 135°06'0 0.8
2017-Dec-15 08:00N 34°15' E 135°05'0 0.0
2017-Dec-15 07:30N 34°15' E 135°05'0 0.0
2017-Dec-15 07:01N 34°15' E 135°05'0 0.0
2017-Dec-15 06:30N 34°15' E 135°05'0 0.0
2017-Dec-15 06:00N 34°15' E 135°05'0 0.1
2017-Dec-15 05:30N 34°15' E 135°05'0 0.0
2017-Dec-15 05:00N 34°15' E 135°05'0 0.0
2017-Dec-15 04:30N 34°15' E 135°05'0 0.0
2017-Dec-15 04:00N 34°15' E 135°05'0 0.0
2017-Dec-15 02:31N 34°15' E 135°05'0 0.1
2017-Dec-15 01:00N 34°15' E 135°05'0 0.1
2017-Dec-15 00:30N 34°15' E 135°05'0 0.0
2017-Dec-14 18:30N 34°15' E 135°05'0 0.0
2017-Dec-14 18:00N 34°15' E 135°05'0 0.0
2017-Dec-14 17:30N 34°15' E 135°05'3 5.1
2017-Dec-14 17:00N 34°14' E 135°02'612.2
2017-Dec-14 16:30N 34°12' E 134°55'712.9
2017-Dec-14 16:00N 34°11' E 134°47'1212.6
2017-Dec-14 15:00N 34°17' E 134°34'713.4
2017-Dec-14 14:30N 34°20' E 134°27'713.6
2017-Dec-14 13:57N 34°22' E 134°18'614.3
2017-Dec-14 13:30N 34°25' E 134°11'6213.1
2017-Dec-14 08:45N 34°09' E 132°58'78 4.3
2017-Dec-13 14:54N 34°19' E 134°31'511.9
2017-Dec-13 14:30N 34°17' E 134°36'510.4
2017-Dec-13 14:00N 34°13' E 134°40'510.8
2017-Dec-13 13:30N 34°09' E 134°44'611.6
2017-Dec-13 12:59N 34°04' E 134°49'611.5
2017-Dec-13 12:30N 33°60' E 134°53'611.1
2017-Dec-13 12:00N 33°55' E 134°57'610.9
2017-Dec-13 11:28N 33°51' E 135°02'15910.1
2017-Dec-12 19:48N 34°32' E 138°07'3 9.3
2017-Dec-12 19:29N 34°33' E 138°10'5 9.8
2017-Dec-12 18:59N 34°35' E 138°16'510.7
2017-Dec-12 18:30N 34°36' E 138°22'510.1
2017-Dec-12 17:59N 34°37' E 138°28'4 8.7
2017-Dec-12 17:30N 34°37' E 138°33'4 8.0
2017-Dec-12 16:57N 34°35' E 138°39'4 7.9
2017-Dec-12 16:26N 34°34' E 138°43'3 8.3
2017-Dec-12 16:00N 34°34' E 138°48'5 8.4
2017-Dec-12 15:25N 34°35' E 138°54'510.7
2017-Dec-12 14:55N 34°38' E 138°59'511.8
2017-Dec-12 14:30N 34°41' E 139°03'611.7
2017-Dec-12 13:57N 34°47' E 139°08'611.4
2017-Dec-12 13:26N 34°51' E 139°13'510.9
2017-Dec-12 12:59N 34°54' E 139°17'911.4
2017-Dec-12 12:14N 34°59' E 139°26'311.6
2017-Dec-12 12:00N 35°01' E 139°28'612.2
2017-Dec-12 11:30N 35°04' E 139°34'612.4
2017-Dec-12 11:00N 35°07' E 139°41'612.5
2017-Dec-12 10:30N 35°12' E 139°46'611.8
2017-Dec-12 10:00N 35°18' E 139°44'612.2
2017-Dec-12 09:30N 35°24' E 139°43'713.2
2017-Dec-12 09:00N 35°28' E 139°48'713.2
2017-Dec-12 08:30N 35°35' E 139°51'3 6.5
2017-Dec-12 08:00N 35°37' E 139°48'0 0.1
2017-Dec-12 07:30N 35°37' E 139°49'0 0.0
2017-Dec-12 07:00N 35°37' E 139°49'0 0.0
2017-Dec-12 06:30N 35°37' E 139°49'0 0.0
2017-Dec-12 06:00N 35°37' E 139°49'0 0.0
2017-Dec-12 05:29N 35°37' E 139°49'0 0.0
2017-Dec-12 05:00N 35°37' E 139°49'0 0.0
2017-Dec-12 04:29N 35°37' E 139°49'0 0.0
2017-Dec-12 04:00N 35°37' E 139°49'0 0.0
2017-Dec-12 03:30N 35°37' E 139°49'0 0.0
2017-Dec-12 03:00N 35°37' E 139°49'0 0.0
2017-Dec-12 02:15N 35°37' E 139°49'0 0.0
2017-Dec-12 01:59N 35°37' E 139°49'0 0.0
2017-Dec-12 01:26N 35°37' E 139°49'0 0.0
2017-Dec-12 00:56N 35°37' E 139°49'0 0.0
2017-Dec-12 00:30N 35°37' E 139°49'0 0.0
2017-Dec-11 23:57N 35°37' E 139°49'0 0.0
2017-Dec-11 23:29N 35°37' E 139°49'0 0.0
2017-Dec-11 22:59N 35°37' E 139°49'0 0.0
2017-Dec-11 22:30N 35°37' E 139°49'0 0.1
2017-Dec-11 22:00N 35°37' E 139°48'4 8.5
2017-Dec-11 21:30N 35°34' E 139°51'611.5
2017-Dec-11 21:00N 35°28' E 139°51'713.2
2017-Dec-11 20:30N 35°23' E 139°46'611.8
2017-Dec-11 20:00N 35°17' E 139°46'612.2
2017-Dec-11 19:30N 35°11' E 139°47'612.7
2017-Dec-11 19:00N 35°05' E 139°44'713.3
2017-Dec-11 18:31N 35°01' E 139°38'714.4
2017-Dec-11 18:00N 34°57' E 139°30'815.4
2017-Dec-11 17:30N 34°52' E 139°22'815.1
2017-Dec-11 17:00N 34°47' E 139°15'714.4
2017-Dec-11 16:30N 34°43' E 139°09'714.2
2017-Dec-11 15:59N 34°38' E 139°01'613.8
2017-Dec-11 15:30N 34°35' E 138°54'714.2
2017-Dec-11 15:00N 34°34' E 138°46'713.4
2017-Dec-11 14:29N 34°34' E 138°37'714.0
2017-Dec-11 13:58N 34°33' E 138°28'713.8
2017-Dec-11 13:26N 34°33' E 138°20'614.0
2017-Dec-11 13:00N 34°33' E 138°12'714.0
2017-Dec-11 12:29N 34°33' E 138°03'714.2
2017-Dec-11 11:59N 34°33' E 137°55'2613.8
2017-Dec-11 10:05N 34°33' E 137°23'214.2
2017-Dec-11 09:55N 34°33' E 137°20'614.1
2017-Dec-11 09:30N 34°32' E 137°13'814.4
2017-Dec-11 08:56N 34°32' E 137°03'614.2
2017-Dec-11 08:30N 34°36' E 136°57'714.0
2017-Dec-11 07:59N 34°40' E 136°50'714.2
2017-Dec-11 07:30N 34°46' E 136°47'713.7
2017-Dec-11 07:00N 34°53' E 136°46'713.2
2017-Dec-11 06:30N 34°59' E 136°49'611.5
2017-Dec-11 06:01N 35°04' E 136°52'0 0.1
2017-Dec-11 05:30N 35°04' E 136°52'0 0.0
2017-Dec-11 05:00N 35°04' E 136°52'0 0.0
2017-Dec-11 04:31N 35°04' E 136°52'0 0.0
2017-Dec-11 04:00N 35°04' E 136°52'0 0.0
2017-Dec-11 03:31N 35°04' E 136°52'0 0.0
2017-Dec-11 03:01N 35°04' E 136°52'0 0.0
2017-Dec-11 02:30N 35°04' E 136°52'0 0.0
2017-Dec-11 02:00N 35°04' E 136°52'0 0.0
2017-Dec-11 01:30N 35°04' E 136°52'0 0.0
2017-Dec-11 01:00N 35°04' E 136°52'0 0.0
2017-Dec-11 00:30N 35°04' E 136°52'0 0.0
2017-Dec-11 00:01N 35°04' E 136°52'0 0.0
2017-Dec-10 23:30N 35°04' E 136°52'0 0.0
2017-Dec-10 23:01N 35°04' E 136°52'0 0.0
2017-Dec-10 22:31N 35°04' E 136°52'0 0.0
2017-Dec-10 22:01N 35°04' E 136°52'1 2.2
2017-Dec-10 21:31N 35°05' E 136°53'0 0.1
2017-Dec-10 21:00N 35°05' E 136°53'0 0.0
2017-Dec-10 20:31N 35°05' E 136°53'0 0.1
2017-Dec-10 20:00N 35°05' E 136°53'0 0.0
2017-Dec-10 19:30N 35°05' E 136°53'0 0.1
2017-Dec-10 19:00N 35°05' E 136°53'0 0.1
2017-Dec-10 18:30N 35°05' E 136°53'0 0.1
2017-Dec-10 18:00N 35°05' E 136°53'0 0.0
2017-Dec-10 17:31N 35°05' E 136°53'0 0.1
2017-Dec-10 17:01N 35°05' E 136°53'0 0.0
2017-Dec-10 16:31N 35°05' E 136°53'0 0.0
2017-Dec-10 16:00N 35°05' E 136°53'0 0.0
2017-Dec-10 15:30N 35°05' E 136°53'0 0.0
2017-Dec-10 15:00N 35°05' E 136°53'0 0.1
2017-Dec-10 14:30N 35°05' E 136°53'0 0.0
2017-Dec-10 14:01N 35°05' E 136°53'0 0.1
2017-Dec-10 13:31N 35°05' E 136°53'0 0.1
2017-Dec-10 13:00N 35°05' E 136°53'0 0.0
2017-Dec-10 12:30N 35°05' E 136°53'0 0.1
2017-Dec-10 12:01N 35°05' E 136°53'1 2.9
2017-Dec-10 11:31N 35°04' E 136°52'612.3
2017-Dec-10 11:01N 34°58' E 136°48'612.1
2017-Dec-10 10:30N 34°52' E 136°47'612.5
2017-Dec-10 10:01N 34°46' E 136°49'612.3
2017-Dec-10 09:30N 34°41' E 136°53'612.4
2017-Dec-10 09:00N 34°36' E 136°58'3010.7
2017-Dec-10 06:11N 34°08' E 136°46'87 9.4
2017-Dec-09 21:00N 33°52' E 135°03'612.7
2017-Dec-09 20:30N 33°58' E 135°01'612.5
2017-Dec-09 20:01N 34°05' E 135°02'612.7
2017-Dec-09 19:31N 34°11' E 135°04'5 9.5
2017-Dec-09 19:00N 34°14' E 135°07'0 0.7
2017-Dec-09 18:31N 34°15' E 135°07'0 0.0
2017-Dec-09 18:00N 34°15' E 135°07'0 0.0
2017-Dec-09 17:31N 34°15' E 135°07'0 0.0
2017-Dec-09 17:00N 34°15' E 135°07'0 0.0
2017-Dec-09 16:30N 34°15' E 135°07'0 0.0
2017-Dec-09 16:00N 34°15' E 135°07'0 0.0
2017-Dec-09 15:30N 34°15' E 135°07'0 0.0
2017-Dec-09 15:00N 34°15' E 135°07'0 0.0
2017-Dec-09 14:30N 34°15' E 135°07'0 0.0
2017-Dec-09 14:00N 34°15' E 135°07'0 0.0
2017-Dec-09 13:30N 34°15' E 135°07'0 0.0
2017-Dec-09 13:00N 34°15' E 135°07'0 0.0
2017-Dec-09 12:30N 34°15' E 135°07'0 0.0
2017-Dec-09 12:00N 34°15' E 135°07'0 0.0
2017-Dec-09 11:30N 34°15' E 135°07'0 0.0
2017-Dec-09 11:00N 34°15' E 135°07'0 0.3
2017-Dec-09 10:30N 34°15' E 135°07'0 0.8
2017-Dec-09 10:01N 34°15' E 135°07'0 0.0
2017-Dec-09 09:30N 34°14' E 135°07'0 0.1
2017-Dec-09 09:00N 34°14' E 135°07'0 0.0
2017-Dec-09 08:30N 34°14' E 135°07'0 0.0
2017-Dec-09 08:01N 34°14' E 135°07'0 0.0
2017-Dec-09 07:30N 34°15' E 135°07'0 0.0
2017-Dec-09 07:01N 34°14' E 135°07'0 0.0
2017-Dec-09 06:31N 34°14' E 135°07'1 2.6
2017-Dec-09 06:01N 34°14' E 135°08'0 0.0
2017-Dec-09 05:30N 34°14' E 135°08'0 0.0
2017-Dec-09 05:01N 34°14' E 135°08'0 0.0
2017-Dec-09 04:30N 34°14' E 135°08'0 0.0
2017-Dec-09 04:01N 34°14' E 135°08'0 0.0
2017-Dec-09 03:30N 34°14' E 135°08'0 0.0
2017-Dec-09 03:00N 34°14' E 135°08'0 0.0
2017-Dec-09 02:30N 34°14' E 135°08'0 0.0
2017-Dec-09 02:01N 34°14' E 135°08'0 0.0
2017-Dec-09 01:30N 34°14' E 135°08'0 0.0
2017-Dec-09 01:00N 34°14' E 135°08'0 0.0
2017-Dec-09 00:30N 34°14' E 135°08'0 0.0
2017-Dec-09 00:00N 34°14' E 135°08'0 0.0
2017-Dec-08 23:31N 34°14' E 135°08'0 0.0
2017-Dec-08 23:00N 34°14' E 135°08'0 0.0
2017-Dec-08 22:30N 34°14' E 135°08'0 0.0
2017-Dec-08 22:00N 34°14' E 135°08'0 0.0
2017-Dec-08 21:30N 34°14' E 135°08'0 0.0
2017-Dec-08 21:00N 34°14' E 135°08'0 0.1
2017-Dec-08 20:30N 34°14' E 135°08'2 4.2
2017-Dec-08 20:00N 34°15' E 135°06'0 0.0
2017-Dec-08 19:30N 34°15' E 135°06'0 0.0
2017-Dec-08 19:01N 34°15' E 135°06'0 0.0
2017-Dec-08 18:30N 34°15' E 135°06'0 0.0
2017-Dec-08 18:00N 34°15' E 135°06'0 0.0
2017-Dec-08 17:31N 34°15' E 135°06'0 0.0
2017-Dec-08 17:00N 34°15' E 135°06'0 0.0
2017-Dec-08 16:30N 34°15' E 135°06'0 0.0
2017-Dec-08 16:01N 34°15' E 135°06'0 0.0
2017-Dec-08 15:30N 34°15' E 135°06'0 0.0
2017-Dec-08 15:01N 34°15' E 135°06'0 0.0
2017-Dec-08 14:31N 34°15' E 135°06'0 0.1
2017-Dec-08 14:01N 34°15' E 135°06'0 0.0
2017-Dec-08 13:30N 34°15' E 135°06'0 0.0
2017-Dec-08 13:00N 34°15' E 135°06'0 0.0
2017-Dec-08 12:31N 34°15' E 135°06'0 0.0
2017-Dec-08 12:01N 34°15' E 135°06'0 0.0
2017-Dec-08 11:31N 34°15' E 135°06'0 0.0
2017-Dec-08 11:01N 34°15' E 135°06'0 0.1
2017-Dec-08 10:30N 34°15' E 135°06'1 2.3
2017-Dec-08 10:01N 34°14' E 135°05'611.2
2017-Dec-08 09:30N 34°09' E 135°03'611.2
2017-Dec-08 09:00N 34°04' E 134°60'611.7
2017-Dec-08 08:30N 33°58' E 134°56'611.5
2017-Dec-08 08:00N 33°53' E 134°53'  
Track history (hours):
 
Tides and Currents Weather Stations Pressure Air Temp Water Temp Dewpoint Dewpoint Depression Visibility Wind Speed Wind Dir Waves Ship Positions

Suehiro Maru No.8

Last reported at 2017-Dec-17 16:00 UTC. Time now 2017-Dec-17 16:04 UTC.
Position N 34°35' E 136°59'.

Length 88 m; draft 3.2 m.

Type: Cargo ship. MMSI: 431400446.

Date/timePositionNaut miles runAvg speedWind from/ knotsBaromVisibWave heightAir tempDewpointWater temp
2017-Dec-17 16:00N 34°35' E 136°59'713.6
2017-Dec-17 15:30N 34°39' E 136°52'713.6
2017-Dec-17 15:00N 34°45' E 136°48'713.5
2017-Dec-17 14:30N 34°51' E 136°46'713.4
2017-Dec-17 14:00N 34°58' E 136°48'611.3
2017-Dec-17 13:30N 35°02' E 136°52'0 0.1
2017-Dec-17 13:00N 35°02' E 136°52'0 0.0
2017-Dec-17 12:31N 35°02' E 136°52'0 0.0
2017-Dec-17 12:00N 35°02' E 136°52'0 0.0
2017-Dec-17 11:31N 35°02' E 136°52'0 0.0
2017-Dec-17 11:00N 35°02' E 136°52'0 0.0
2017-Dec-17 10:30N 35°02' E 136°52'0 0.0
2017-Dec-17 10:00N 35°02' E 136°52'0 0.0
2017-Dec-17 09:30N 35°02' E 136°52'0 0.0
2017-Dec-17 09:01N 35°02' E 136°52'0 0.0
2017-Dec-17 08:30N 35°02' E 136°52'0 0.0
2017-Dec-17 08:01N 35°02' E 136°52'0 0.0
2017-Dec-17 07:31N 35°02' E 136°52'2 3.3
2017-Dec-17 07:00N 35°03' E 136°50'0 0.2
2017-Dec-17 06:30N 35°03' E 136°50'0 0.0
2017-Dec-17 06:00N 35°03' E 136°50'0 0.0
2017-Dec-17 05:30N 35°03' E 136°50'0 0.0
2017-Dec-17 05:01N 35°03' E 136°50'0 0.0
2017-Dec-17 04:30N 35°03' E 136°50'0 0.0
2017-Dec-17 04:00N 35°03' E 136°50'0 0.0
2017-Dec-17 03:31N 35°03' E 136°50'0 0.0
2017-Dec-17 03:00N 35°03' E 136°50'0 0.0
2017-Dec-17 02:31N 35°03' E 136°50'0 0.0
2017-Dec-17 02:01N 35°03' E 136°50'0 0.0
2017-Dec-17 01:31N 35°03' E 136°50'0 0.0
2017-Dec-17 01:01N 35°03' E 136°50'0 0.0
2017-Dec-17 00:31N 35°03' E 136°50'0 0.0
2017-Dec-17 00:00N 35°03' E 136°50'0 0.0
2017-Dec-16 23:30N 35°03' E 136°50'0 0.0
2017-Dec-16 23:00N 35°03' E 136°50'2 3.1
2017-Dec-16 22:30N 35°02' E 136°51'1 1.6
2017-Dec-16 22:00N 35°01' E 136°51'0 0.0
2017-Dec-16 21:31N 35°01' E 136°51'0 0.0
2017-Dec-16 21:01N 35°01' E 136°51'0 0.0
2017-Dec-16 20:30N 35°01' E 136°51'0 0.0
2017-Dec-16 20:01N 35°01' E 136°51'0 0.1
2017-Dec-16 19:30N 35°01' E 136°51'0 0.0
2017-Dec-16 19:00N 35°01' E 136°51'0 0.0
2017-Dec-16 18:30N 35°01' E 136°51'0 0.1
2017-Dec-16 18:00N 35°01' E 136°51'0 0.1
2017-Dec-16 17:30N 35°01' E 136°51'0 0.0
2017-Dec-16 17:01N 35°01' E 136°51'0 0.0
2017-Dec-16 16:30N 35°01' E 136°51'0 0.0
2017-Dec-16 16:01N 35°01' E 136°51'0 0.0
2017-Dec-16 15:31N 35°01' E 136°51'0 0.0
2017-Dec-16 15:01N 35°01' E 136°51'0 0.0
2017-Dec-16 14:30N 35°01' E 136°51'0 0.0
2017-Dec-16 14:00N 35°01' E 136°51'0 0.0
2017-Dec-16 13:30N 35°01' E 136°51'0 0.1
2017-Dec-16 13:00N 35°01' E 136°51'0 0.0
2017-Dec-16 12:31N 35°01' E 136°51'4 7.7
2017-Dec-16 12:01N 34°58' E 136°48'3 5.9
2017-Dec-16 11:30N 34°55' E 136°47'4 9.0
2017-Dec-16 11:01N 34°50' E 136°48'611.4
2017-Dec-16 10:30N 34°45' E 136°49'611.3
2017-Dec-16 10:00N 34°40' E 136°53'711.2
2017-Dec-16 09:25N 34°35' E 136°59'2710.6
2017-Dec-16 06:52N 34°10' E 136°48'89 9.4
2017-Dec-15 21:19N 33°53' E 135°02'412.0
2017-Dec-15 21:01N 33°57' E 135°02'612.6
2017-Dec-15 20:31N 34°03' E 135°02'612.4
2017-Dec-15 20:01N 34°09' E 135°03'611.3
2017-Dec-15 19:30N 34°14' E 135°06'1 1.9
2017-Dec-15 19:00N 34°15' E 135°07'0 0.0
2017-Dec-15 18:30N 34°15' E 135°07'0 0.0
2017-Dec-15 18:00N 34°15' E 135°07'0 0.0
2017-Dec-15 17:30N 34°15' E 135°07'0 0.0
2017-Dec-15 17:00N 34°15' E 135°07'0 0.0
2017-Dec-15 16:31N 34°15' E 135°07'0 0.0
2017-Dec-15 16:01N 34°15' E 135°07'0 0.0
2017-Dec-15 15:30N 34°15' E 135°07'0 0.0
2017-Dec-15 15:00N 34°15' E 135°07'0 0.0
2017-Dec-15 14:30N 34°15' E 135°07'0 0.0
2017-Dec-15 14:00N 34°15' E 135°07'0 0.0
2017-Dec-15 13:30N 34°15' E 135°07'0 0.0
2017-Dec-15 13:00N 34°15' E 135°07'0 0.0
2017-Dec-15 12:31N 34°15' E 135°07'0 0.0
2017-Dec-15 12:00N 34°15' E 135°07'0 0.0
2017-Dec-15 11:30N 34°15' E 135°07'0 0.0
2017-Dec-15 11:00N 34°15' E 135°07'0 0.0
2017-Dec-15 10:30N 34°15' E 135°07'0 0.0
2017-Dec-15 10:01N 34°15' E 135°07'0 0.0
2017-Dec-15 09:30N 34°15' E 135°07'0 0.1
2017-Dec-15 09:00N 34°15' E 135°07'1 2.4
2017-Dec-15 08:30N 34°15' E 135°06'0 0.8
2017-Dec-15 08:00N 34°15' E 135°05'0 0.0
2017-Dec-15 07:30N 34°15' E 135°05'0 0.0
2017-Dec-15 07:01N 34°15' E 135°05'0 0.0
2017-Dec-15 06:30N 34°15' E 135°05'0 0.0
2017-Dec-15 06:00N 34°15' E 135°05'0 0.1
2017-Dec-15 05:30N 34°15' E 135°05'0 0.0
2017-Dec-15 05:00N 34°15' E 135°05'0 0.0
2017-Dec-15 04:30N 34°15' E 135°05'0 0.0
2017-Dec-15 04:00N 34°15' E 135°05'0 0.0
2017-Dec-15 02:31N 34°15' E 135°05'0 0.1
2017-Dec-15 01:00N 34°15' E 135°05'0 0.1
2017-Dec-15 00:30N 34°15' E 135°05'0 0.0
2017-Dec-14 18:30N 34°15' E 135°05'0 0.0
2017-Dec-14 18:00N 34°15' E 135°05'0 0.0
2017-Dec-14 17:30N 34°15' E 135°05'3 5.1
2017-Dec-14 17:00N 34°14' E 135°02'612.2
2017-Dec-14 16:30N 34°12' E 134°55'712.9
2017-Dec-14 16:00N 34°11' E 134°47'1212.6
2017-Dec-14 15:00N 34°17' E 134°34'713.4
2017-Dec-14 14:30N 34°20' E 134°27'713.6
2017-Dec-14 13:57N 34°22' E 134°18'614.3
2017-Dec-14 13:30N 34°25' E 134°11'6213.1
2017-Dec-14 08:45N 34°09' E 132°58'78 4.3
2017-Dec-13 14:54N 34°19' E 134°31'511.9
2017-Dec-13 14:30N 34°17' E 134°36'510.4
2017-Dec-13 14:00N 34°13' E 134°40'510.8
2017-Dec-13 13:30N 34°09' E 134°44'611.6
2017-Dec-13 12:59N 34°04' E 134°49'611.5
2017-Dec-13 12:30N 33°60' E 134°53'611.1
2017-Dec-13 12:00N 33°55' E 134°57'610.9
2017-Dec-13 11:28N 33°51' E 135°02'15910.1
2017-Dec-12 19:48N 34°32' E 138°07'3 9.3
2017-Dec-12 19:29N 34°33' E 138°10'5 9.8
2017-Dec-12 18:59N 34°35' E 138°16'510.7
2017-Dec-12 18:30N 34°36' E 138°22'510.1
2017-Dec-12 17:59N 34°37' E 138°28'4 8.7
2017-Dec-12 17:30N 34°37' E 138°33'4 8.0
2017-Dec-12 16:57N 34°35' E 138°39'4 7.9
2017-Dec-12 16:26N 34°34' E 138°43'3 8.3
2017-Dec-12 16:00N 34°34' E 138°48'5 8.4
2017-Dec-12 15:25N 34°35' E 138°54'510.7
2017-Dec-12 14:55N 34°38' E 138°59'511.8
2017-Dec-12 14:30N 34°41' E 139°03'611.7
2017-Dec-12 13:57N 34°47' E 139°08'611.4
2017-Dec-12 13:26N 34°51' E 139°13'510.9
2017-Dec-12 12:59N 34°54' E 139°17'911.4
2017-Dec-12 12:14N 34°59' E 139°26'311.6
2017-Dec-12 12:00N 35°01' E 139°28'612.2
2017-Dec-12 11:30N 35°04' E 139°34'612.4
2017-Dec-12 11:00N 35°07' E 139°41'612.5
2017-Dec-12 10:30N 35°12' E 139°46'611.8
2017-Dec-12 10:00N 35°18' E 139°44'612.2
2017-Dec-12 09:30N 35°24' E 139°43'713.2
2017-Dec-12 09:00N 35°28' E 139°48'713.2
2017-Dec-12 08:30N 35°35' E 139°51'3 6.5
2017-Dec-12 08:00N 35°37' E 139°48'0 0.1
2017-Dec-12 07:30N 35°37' E 139°49'0 0.0
2017-Dec-12 07:00N 35°37' E 139°49'0 0.0
2017-Dec-12 06:30N 35°37' E 139°49'0 0.0
2017-Dec-12 06:00N 35°37' E 139°49'0 0.0
2017-Dec-12 05:29N 35°37' E 139°49'0 0.0
2017-Dec-12 05:00N 35°37' E 139°49'0 0.0
2017-Dec-12 04:29N 35°37' E 139°49'0 0.0
2017-Dec-12 04:00N 35°37' E 139°49'0 0.0
2017-Dec-12 03:30N 35°37' E 139°49'0 0.0
2017-Dec-12 03:00N 35°37' E 139°49'0 0.0
2017-Dec-12 02:15N 35°37' E 139°49'0 0.0
2017-Dec-12 01:59N 35°37' E 139°49'0 0.0
2017-Dec-12 01:26N 35°37' E 139°49'0 0.0
2017-Dec-12 00:56N 35°37' E 139°49'0 0.0
2017-Dec-12 00:30N 35°37' E 139°49'0 0.0
2017-Dec-11 23:57N 35°37' E 139°49'0 0.0
2017-Dec-11 23:29N 35°37' E 139°49'0 0.0
2017-Dec-11 22:59N 35°37' E 139°49'0 0.0
2017-Dec-11 22:30N 35°37' E 139°49'0 0.1
2017-Dec-11 22:00N 35°37' E 139°48'4 8.5
2017-Dec-11 21:30N 35°34' E 139°51'611.5
2017-Dec-11 21:00N 35°28' E 139°51'713.2
2017-Dec-11 20:30N 35°23' E 139°46'611.8
2017-Dec-11 20:00N 35°17' E 139°46'612.2
2017-Dec-11 19:30N 35°11' E 139°47'612.7
2017-Dec-11 19:00N 35°05' E 139°44'713.3
2017-Dec-11 18:31N 35°01' E 139°38'714.4
2017-Dec-11 18:00N 34°57' E 139°30'815.4
2017-Dec-11 17:30N 34°52' E 139°22'815.1
2017-Dec-11 17:00N 34°47' E 139°15'714.4
2017-Dec-11 16:30N 34°43' E 139°09'714.2
2017-Dec-11 15:59N 34°38' E 139°01'613.8
2017-Dec-11 15:30N 34°35' E 138°54'714.2
2017-Dec-11 15:00N 34°34' E 138°46'713.4
2017-Dec-11 14:29N 34°34' E 138°37'714.0
2017-Dec-11 13:58N 34°33' E 138°28'713.8
2017-Dec-11 13:26N 34°33' E 138°20'614.0
2017-Dec-11 13:00N 34°33' E 138°12'714.0
2017-Dec-11 12:29N 34°33' E 138°03'714.2
2017-Dec-11 11:59N 34°33' E 137°55'2613.8
2017-Dec-11 10:05N 34°33' E 137°23'214.2
2017-Dec-11 09:55N 34°33' E 137°20'614.1
2017-Dec-11 09:30N 34°32' E 137°13'814.4
2017-Dec-11 08:56N 34°32' E 137°03'614.2
2017-Dec-11 08:30N 34°36' E 136°57'714.0
2017-Dec-11 07:59N 34°40' E 136°50'714.2
2017-Dec-11 07:30N 34°46' E 136°47'713.7
2017-Dec-11 07:00N 34°53' E 136°46'713.2
2017-Dec-11 06:30N 34°59' E 136°49'611.5
2017-Dec-11 06:01N 35°04' E 136°52'0 0.1
2017-Dec-11 05:30N 35°04' E 136°52'0 0.0
2017-Dec-11 05:00N 35°04' E 136°52'0 0.0
2017-Dec-11 04:31N 35°04' E 136°52'0 0.0
2017-Dec-11 04:00N 35°04' E 136°52'0 0.0
2017-Dec-11 03:31N 35°04' E 136°52'0 0.0
2017-Dec-11 03:01N 35°04' E 136°52'0 0.0
2017-Dec-11 02:30N 35°04' E 136°52'0 0.0
2017-Dec-11 02:00N 35°04' E 136°52'0 0.0
2017-Dec-11 01:30N 35°04' E 136°52'0 0.0
2017-Dec-11 01:00N 35°04' E 136°52'0 0.0
2017-Dec-11 00:30N 35°04' E 136°52'0 0.0
2017-Dec-11 00:01N 35°04' E 136°52'0 0.0
2017-Dec-10 23:30N 35°04' E 136°52'0 0.0
2017-Dec-10 23:01N 35°04' E 136°52'0 0.0
2017-Dec-10 22:31N 35°04' E 136°52'0 0.0
2017-Dec-10 22:01N 35°04' E 136°52'1 2.2
2017-Dec-10 21:31N 35°05' E 136°53'0 0.1
2017-Dec-10 21:00N 35°05' E 136°53'0 0.0
2017-Dec-10 20:31N 35°05' E 136°53'0 0.1
2017-Dec-10 20:00N 35°05' E 136°53'0 0.0
2017-Dec-10 19:30N 35°05' E 136°53'0 0.1
2017-Dec-10 19:00N 35°05' E 136°53'0 0.1
2017-Dec-10 18:30N 35°05' E 136°53'0 0.1
2017-Dec-10 18:00N 35°05' E 136°53'0 0.0
2017-Dec-10 17:31N 35°05' E 136°53'0 0.1
2017-Dec-10 17:01N 35°05' E 136°53'0 0.0
2017-Dec-10 16:31N 35°05' E 136°53'0 0.0
2017-Dec-10 16:00N 35°05' E 136°53'0 0.0
2017-Dec-10 15:30N 35°05' E 136°53'0 0.0
2017-Dec-10 15:00N 35°05' E 136°53'0 0.1
2017-Dec-10 14:30N 35°05' E 136°53'0 0.0
2017-Dec-10 14:01N 35°05' E 136°53'0 0.1
2017-Dec-10 13:31N 35°05' E 136°53'0 0.1
2017-Dec-10 13:00N 35°05' E 136°53'0 0.0
2017-Dec-10 12:30N 35°05' E 136°53'0 0.1
2017-Dec-10 12:01N 35°05' E 136°53'1 2.9
2017-Dec-10 11:31N 35°04' E 136°52'612.3
2017-Dec-10 11:01N 34°58' E 136°48'612.1
2017-Dec-10 10:30N 34°52' E 136°47'612.5
2017-Dec-10 10:01N 34°46' E 136°49'612.3
2017-Dec-10 09:30N 34°41' E 136°53'612.4
2017-Dec-10 09:00N 34°36' E 136°58'3010.7
2017-Dec-10 06:11N 34°08' E 136°46'87 9.4
2017-Dec-09 21:00N 33°52' E 135°03'612.7
2017-Dec-09 20:30N 33°58' E 135°01'612.5
2017-Dec-09 20:01N 34°05' E 135°02'612.7
2017-Dec-09 19:31N 34°11' E 135°04'5 9.5
2017-Dec-09 19:00N 34°14' E 135°07'0 0.7
2017-Dec-09 18:31N 34°15' E 135°07'0 0.0
2017-Dec-09 18:00N 34°15' E 135°07'0 0.0
2017-Dec-09 17:31N 34°15' E 135°07'0 0.0
2017-Dec-09 17:00N 34°15' E 135°07'0 0.0
2017-Dec-09 16:30N 34°15' E 135°07'0 0.0
2017-Dec-09 16:00N 34°15' E 135°07'0 0.0
2017-Dec-09 15:30N 34°15' E 135°07'0 0.0
2017-Dec-09 15:00N 34°15' E 135°07'0 0.0
2017-Dec-09 14:30N 34°15' E 135°07'0 0.0
2017-Dec-09 14:00N 34°15' E 135°07'0 0.0
2017-Dec-09 13:30N 34°15' E 135°07'0 0.0
2017-Dec-09 13:00N 34°15' E 135°07'0 0.0
2017-Dec-09 12:30N 34°15' E 135°07'0 0.0
2017-Dec-09 12:00N 34°15' E 135°07'0 0.0
2017-Dec-09 11:30N 34°15' E 135°07'0 0.0
2017-Dec-09 11:00N 34°15' E 135°07'0 0.3
2017-Dec-09 10:30N 34°15' E 135°07'0 0.8
2017-Dec-09 10:01N 34°15' E 135°07'0 0.0
2017-Dec-09 09:30N 34°14' E 135°07'0 0.1
2017-Dec-09 09:00N 34°14' E 135°07'0 0.0
2017-Dec-09 08:30N 34°14' E 135°07'0 0.0
2017-Dec-09 08:01N 34°14' E 135°07'0 0.0
2017-Dec-09 07:30N 34°15' E 135°07'0 0.0
2017-Dec-09 07:01N 34°14' E 135°07'0 0.0
2017-Dec-09 06:31N 34°14' E 135°07'1 2.6
2017-Dec-09 06:01N 34°14' E 135°08'0 0.0
2017-Dec-09 05:30N 34°14' E 135°08'0 0.0
2017-Dec-09 05:01N 34°14' E 135°08'0 0.0
2017-Dec-09 04:30N 34°14' E 135°08'0 0.0
2017-Dec-09 04:01N 34°14' E 135°08'0 0.0
2017-Dec-09 03:30N 34°14' E 135°08'0 0.0
2017-Dec-09 03:00N 34°14' E 135°08'0 0.0
2017-Dec-09 02:30N 34°14' E 135°08'0 0.0
2017-Dec-09 02:01N 34°14' E 135°08'0 0.0
2017-Dec-09 01:30N 34°14' E 135°08'0 0.0
2017-Dec-09 01:00N 34°14' E 135°08'0 0.0
2017-Dec-09 00:30N 34°14' E 135°08'0 0.0
2017-Dec-09 00:00N 34°14' E 135°08'0 0.0
2017-Dec-08 23:31N 34°14' E 135°08'0 0.0
2017-Dec-08 23:00N 34°14' E 135°08'0 0.0
2017-Dec-08 22:30N 34°14' E 135°08'0 0.0
2017-Dec-08 22:00N 34°14' E 135°08'0 0.0
2017-Dec-08 21:30N 34°14' E 135°08'0 0.0
2017-Dec-08 21:00N 34°14' E 135°08'0 0.1
2017-Dec-08 20:30N 34°14' E 135°08'2 4.2
2017-Dec-08 20:00N 34°15' E 135°06'0 0.0
2017-Dec-08 19:30N 34°15' E 135°06'0 0.0
2017-Dec-08 19:01N 34°15' E 135°06'0 0.0
2017-Dec-08 18:30N 34°15' E 135°06'0 0.0
2017-Dec-08 18:00N 34°15' E 135°06'0 0.0
2017-Dec-08 17:31N 34°15' E 135°06'0 0.0
2017-Dec-08 17:00N 34°15' E 135°06'0 0.0
2017-Dec-08 16:30N 34°15' E 135°06'0 0.0
2017-Dec-08 16:01N 34°15' E 135°06'0 0.0
2017-Dec-08 15:30N 34°15' E 135°06'0 0.0
2017-Dec-08 15:01N 34°15' E 135°06'0 0.0
2017-Dec-08 14:31N 34°15' E 135°06'0 0.1
2017-Dec-08 14:01N 34°15' E 135°06'0 0.0
2017-Dec-08 13:30N 34°15' E 135°06'0 0.0
2017-Dec-08 13:00N 34°15' E 135°06'0 0.0
2017-Dec-08 12:31N 34°15' E 135°06'0 0.0
2017-Dec-08 12:01N 34°15' E 135°06'0 0.0
2017-Dec-08 11:31N 34°15' E 135°06'0 0.0
2017-Dec-08 11:01N 34°15' E 135°06'0 0.1
2017-Dec-08 10:30N 34°15' E 135°06'1 2.3
2017-Dec-08 10:01N 34°14' E 135°05'611.2
2017-Dec-08 09:30N 34°09' E 135°03'611.2
2017-Dec-08 09:00N 34°04' E 134°60'611.7
2017-Dec-08 08:30N 33°58' E 134°56'611.5
2017-Dec-08 08:00N 33°53' E 134°53'  

Dump ship's entire track history